Time;durP1;ratioP1;P1;durP2;ratioP2;P2;SDS_P1;SDS_P2;PMS_P1;PMS_P2;Temp;Humidity;BMP_temperature;BMP_pressure;BME280_temperature;BME280_humidity;BME280_pressure;Samples;Min_cycle;Max_cycle;Signal;HPM_P1;HPM_P2
2023/12/02 00:01:37;;;;;;;1.40;1.40;;;;;;;3.03;100.00;98829.84;5029770;28;20782;-63
2023/12/02 00:04:03;;;;;;;1.20;1.20;;;;;;;3.06;100.00;98836.81;5026093;28;20029;-63
2023/12/02 00:06:28;;;;;;;1.30;1.30;;;;;;;3.03;100.00;98839.53;5027438;28;20535;-63
2023/12/02 00:08:54;;;;;;;1.30;1.30;;;;;;;3.08;100.00;98829.78;5029610;28;20026;-63
2023/12/02 00:11:19;;;;;;;1.10;1.10;;;;;;;3.13;100.00;98826.13;5029227;28;20021;-63
2023/12/02 00:13:45;;;;;;;1.20;1.20;;;;;;;3.03;100.00;98831.63;5029241;28;20029;-63
2023/12/02 00:16:10;;;;;;;1.20;1.20;;;;;;;3.04;100.00;98828.97;5027655;28;20041;-63
2023/12/02 00:18:35;;;;;;;1.30;1.30;;;;;;;3.09;100.00;98826.25;5028899;28;20025;-63
2023/12/02 00:21:01;;;;;;;1.23;1.23;;;;;;;3.04;100.00;98833.34;5026894;28;20702;-63
2023/12/02 00:23:26;;;;;;;1.20;1.20;;;;;;;2.93;100.00;98832.72;5027562;28;20025;-63
2023/12/02 00:25:52;;;;;;;1.20;1.20;;;;;;;2.85;100.00;98832.03;5029313;28;20040;-63
2023/12/02 00:28:17;;;;;;;1.17;1.17;;;;;;;2.83;100.00;98839.06;5011492;28;20044;-63
2023/12/02 00:30:43;;;;;;;1.40;1.40;;;;;;;2.83;100.00;98839.06;5027268;28;20038;-63
2023/12/02 00:33:08;;;;;;;1.30;1.30;;;;;;;2.87;100.00;98848.63;5028416;28;20029;-63
2023/12/02 00:35:34;;;;;;;1.30;1.30;;;;;;;2.83;100.00;98853.06;5029227;28;20057;-62
2023/12/02 00:37:59;;;;;;;1.40;1.40;;;;;;;2.89;100.00;98844.19;5016206;28;20110;-62
2023/12/02 00:40:24;;;;;;;1.13;1.13;;;;;;;2.91;100.00;98839.78;5012994;28;20029;-63
2023/12/02 00:42:50;;;;;;;1.30;1.30;;;;;;;2.84;100.00;98852.16;5029164;28;20040;-62
2023/12/02 00:45:15;;;;;;;1.30;1.30;;;;;;;2.78;100.00;98840.91;5028881;28;20595;-62
2023/12/02 00:47:41;;;;;;;1.13;1.13;;;;;;;2.77;100.00;98849.72;5012566;28;20030;-63
2023/12/02 00:50:07;;;;;;;1.30;1.30;;;;;;;2.83;100.00;98857.44;5009376;28;20787;-62
2023/12/02 00:52:32;;;;;;;1.27;1.27;;;;;;;2.90;100.00;98861.69;5016048;28;20117;-63
2023/12/02 00:54:58;;;;;;;1.30;1.30;;;;;;;2.85;100.00;98861.75;5011593;28;20113;-61
2023/12/02 00:57:23;;;;;;;1.25;1.25;;;;;;;2.80;100.00;98862.75;5013406;28;20088;-61
2023/12/02 00:59:48;;;;;;;1.20;1.20;;;;;;;2.80;100.00;98865.41;5013805;28;20038;-61
2023/12/02 01:02:14;;;;;;;1.00;1.00;;;;;;;2.78;100.00;98875.06;5023497;28;20025;-62
2023/12/02 01:04:39;;;;;;;1.30;1.30;;;;;;;2.69;100.00;98863.84;5031180;28;20061;-61
2023/12/02 01:07:05;;;;;;;1.30;1.30;;;;;;;2.72;100.00;98862.91;5032318;28;20086;-60
2023/12/02 01:09:30;;;;;;;1.30;1.30;;;;;;;2.72;100.00;98872.56;5031747;28;20044;-60
2023/12/02 01:11:56;;;;;;;1.15;1.15;;;;;;;2.77;100.00;98875.97;5021780;28;20018;-61
2023/12/02 01:14:21;;;;;;;1.30;1.30;;;;;;;2.73;100.00;98880.41;5030917;28;20033;-60
2023/12/02 01:16:47;;;;;;;1.30;1.30;;;;;;;2.67;100.00;98876.13;5030569;28;20076;-60
2023/12/02 01:19:12;;;;;;;1.20;1.20;;;;;;;2.71;100.00;98879.56;5028339;28;20060;-60
2023/12/02 01:21:38;;;;;;;1.17;1.17;;;;;;;2.68;100.00;98877.84;5012959;28;20026;-60
2023/12/02 01:24:04;;;;;;;1.30;1.30;;;;;;;2.63;100.00;98871.84;5010682;28;20030;-60
2023/12/02 01:26:29;;;;;;;1.30;1.30;;;;;;;2.59;100.00;98878.03;5012865;28;20037;-59
2023/12/02 01:28:54;;;;;;;1.40;1.40;;;;;;;2.59;100.00;98871.91;5010401;28;20164;-60
2023/12/02 01:31:20;;;;;;;1.10;1.10;;;;;;;2.70;100.00;98870.81;5015988;28;20033;-61
2023/12/02 01:33:45;;;;;;;1.30;1.30;;;;;;;2.72;100.00;98882.16;5028452;28;20064;-59
2023/12/02 01:36:14;;;;;;;1.27;1.27;;;;;;;2.55;100.00;98886.84;5030170;28;20374;-61
2023/12/02 01:38:39;;;;;;;1.30;1.30;;;;;;;2.58;100.00;98901.69;5033924;28;20025;-59
2023/12/02 01:41:05;;;;;;;1.17;1.17;;;;;;;2.64;100.00;98910.31;5034745;28;20133;-60
2023/12/02 01:43:30;;;;;;;1.20;1.20;;;;;;;2.61;100.00;98909.50;5030029;28;20040;-60
2023/12/02 01:45:56;;;;;;;1.25;1.25;;;;;;;2.57;100.00;98916.56;5015045;28;20045;-60
2023/12/02 01:48:26;;;;;;;1.25;1.25;;;;;;;2.58;100.00;98925.31;5015444;28;20045;-61
2023/12/02 01:50:52;;;;;;;1.40;1.40;;;;;;;2.56;100.00;98922.72;5015116;28;20029;-60
2023/12/02 01:53:18;;;;;;;1.30;1.30;;;;;;;2.59;100.00;98925.28;5029089;28;20021;-61
2023/12/02 01:55:44;;;;;;;1.20;1.20;;;;;;;2.48;100.00;98924.63;5035011;28;20116;-60
2023/12/02 01:58:09;;;;;;;1.17;1.17;;;;;;;2.55;100.00;98925.38;5034664;28;20032;-60
2023/12/02 02:00:37;;;;;;;1.30;1.30;;;;;;;2.52;100.00;98931.53;5033574;28;20483;-62
2023/12/02 02:03:03;;;;;;;1.20;1.20;;;;;;;2.51;100.00;98932.44;5025281;28;20187;-63
2023/12/02 02:05:28;;;;;;;1.30;1.30;;;;;;;2.53;100.00;98938.53;5031784;28;20457;-60
2023/12/02 02:07:54;;;;;;;1.30;1.30;;;;;;;2.51;100.00;98942.94;5033372;28;20036;-61
2023/12/02 02:10:21;;;;;;;1.20;1.20;;;;;;;2.53;100.00;98946.41;5032889;28;20075;-60
2023/12/02 02:12:46;;;;;;;1.27;1.27;;;;;;;2.60;100.00;98948.00;5031865;28;20112;-60
2023/12/02 02:15:12;;;;;;;1.27;1.27;;;;;;;2.62;100.00;98956.72;5032125;28;20121;-60
2023/12/02 02:17:37;;;;;;;1.20;1.20;;;;;;;2.59;100.00;98950.66;5033866;28;20040;-60
2023/12/02 02:20:03;;;;;;;1.30;1.30;;;;;;;2.53;100.00;98951.66;5020196;28;20030;-60
2023/12/02 02:22:29;;;;;;;1.33;1.33;;;;;;;2.55;100.00;98944.59;5013905;28;20101;-60
2023/12/02 02:24:54;;;;;;;1.20;1.20;;;;;;;2.47;100.00;98940.41;5016702;28;20140;-60
2023/12/02 02:27:20;;;;;;;1.30;1.30;;;;;;;2.36;100.00;98958.06;5014526;28;20489;-61
2023/12/02 02:29:45;;;;;;;1.20;1.20;;;;;;;2.31;100.00;98941.53;5014008;28;20034;-60
2023/12/02 02:32:11;;;;;;;1.33;1.33;;;;;;;2.34;100.00;98960.72;5025112;28;20029;-60
2023/12/02 02:34:40;;;;;;;1.30;1.30;;;;;;;2.36;100.00;98955.44;5026046;28;20369;-60
2023/12/02 02:37:05;;;;;;;1.40;1.40;;;;;;;2.34;100.00;98955.47;5016133;28;20029;-59
2023/12/02 02:39:31;;;;;;;1.40;1.40;;;;;;;2.33;100.00;98938.00;5032670;28;20393;-60
2023/12/02 02:42:05;;;;;;;1.30;1.30;;;;;;;2.31;100.00;98925.78;5033517;28;20025;-60
2023/12/02 02:44:34;;;;;;;1.20;1.20;;;;;;;2.46;100.00;98944.75;5033874;28;20043;-59
2023/12/02 02:47:00;;;;;;;1.30;1.30;;;;;;;2.46;100.00;98944.75;5020878;28;20034;-60
2023/12/02 02:49:25;;;;;;;1.20;1.20;;;;;;;2.40;100.00;98959.75;5014612;28;20028;-59
2023/12/02 02:51:50;;;;;;;1.25;1.25;;;;;;;2.38;100.00;98953.66;5016342;28;20559;-60
2023/12/02 02:54:16;;;;;;;1.10;1.10;;;;;;;2.37;100.00;98959.81;5019377;28;20072;-61
2023/12/02 02:56:43;;;;;;;1.35;1.35;;;;;;;2.44;100.00;98957.03;5034096;28;20091;-59
2023/12/02 02:59:09;;;;;;;1.45;1.45;;;;;;;2.38;100.00;98967.66;5033671;28;20025;-60
2023/12/02 03:01:34;;;;;;;1.27;1.27;;;;;;;2.41;100.00;98970.22;5029539;28;20025;-60
2023/12/02 03:03:59;;;;;;;1.20;1.20;;;;;;;2.34;100.00;98968.56;5033028;28;20406;-60
2023/12/02 03:06:25;;;;;;;1.25;1.25;;;;;;;2.33;100.00;98974.72;5028548;28;20427;-60
2023/12/02 03:08:50;;;;;;;1.17;1.17;;;;;;;2.34;100.00;98976.44;5032521;28;20021;-61
2023/12/02 03:11:16;;;;;;;1.20;1.20;;;;;;;2.38;100.00;98978.16;5031535;28;20349;-60
2023/12/02 03:13:41;;;;;;;1.00;1.00;;;;;;;2.35;100.00;98972.97;5032353;28;20108;-61
2023/12/02 03:16:08;;;;;;;1.30;1.30;;;;;;;2.33;100.00;98972.09;5028261;28;20034;-60
2023/12/02 03:18:33;;;;;;;1.33;1.33;;;;;;;2.28;100.00;98960.81;5031597;28;20374;-60
2023/12/02 03:20:59;;;;;;;1.23;1.23;;;;;;;2.21;100.00;98968.78;5028636;28;20124;-60
2023/12/02 03:23:25;;;;;;;1.33;1.33;;;;;;;2.16;100.00;98971.50;5013718;28;20026;-61
2023/12/02 03:25:51;;;;;;;1.30;1.30;;;;;;;2.14;100.00;98973.28;5012973;28;20474;-60
2023/12/02 03:28:18;;;;;;;1.30;1.30;;;;;;;2.17;100.00;98978.50;5028042;28;20055;-59
2023/12/02 03:30:43;;;;;;;1.20;1.20;;;;;;;2.11;100.00;98978.56;5032708;28;20033;-61
2023/12/02 03:33:09;;;;;;;1.20;1.20;;;;;;;2.05;100.00;98973.44;5029118;28;20029;-60
2023/12/02 03:35:34;;;;;;;1.38;1.38;;;;;;;2.05;100.00;98983.94;5032960;28;20033;-61
2023/12/02 03:37:59;;;;;;;1.20;1.20;;;;;;;2.13;100.00;98983.78;5032539;28;20091;-60
2023/12/02 03:40:25;;;;;;;1.30;1.30;;;;;;;1.92;100.00;98992.88;5023944;28;20025;-61
2023/12/02 03:42:50;;;;;;;1.23;1.23;;;;;;;1.89;100.00;98987.69;5032685;28;20087;-60
2023/12/02 03:45:16;;;;;;;1.30;1.30;;;;;;;1.86;100.00;98987.69;5032542;28;20120;-60
2023/12/02 03:47:41;;;;;;;1.40;1.40;;;;;;;1.84;100.00;98994.75;5030413;28;20034;-60
2023/12/02 03:50:07;;;;;;;1.40;1.40;;;;;;;1.83;100.00;98994.75;5015201;28;20402;-60
2023/12/02 03:52:32;;;;;;;1.40;1.40;;;;;;;1.73;100.00;99001.88;5012782;28;20113;-60
2023/12/02 03:54:57;;;;;;;1.40;1.40;;;;;;;1.81;100.00;98999.16;5021378;28;20033;-60
2023/12/02 03:57:23;;;;;;;1.40;1.40;;;;;;;1.86;100.00;99003.41;5032874;28;20116;-61
2023/12/02 03:59:48;;;;;;;1.35;1.35;;;;;;;1.87;100.00;99007.78;5028364;28;20033;-61
2023/12/02 04:02:14;;;;;;;1.23;1.23;;;;;;;1.78;100.00;99015.78;5031659;28;20106;-60
2023/12/02 04:04:39;;;;;;;1.40;1.40;;;;;;;1.82;100.00;99017.47;5031303;28;20035;-60
2023/12/02 04:07:04;;;;;;;1.30;1.30;;;;;;;1.75;100.00;99023.69;5030179;28;20018;-60
2023/12/02 04:09:30;;;;;;;1.30;1.30;;;;;;;1.70;100.00;99033.34;5015955;28;20030;-61
2023/12/02 04:11:55;;;;;;;1.30;1.30;;;;;;;1.83;100.00;99039.31;5016607;28;20043;-61
2023/12/02 04:14:21;;;;;;;1.40;1.40;;;;;;;1.90;100.00;99041.81;5030187;28;20057;-60
2023/12/02 04:16:46;;;;;;;1.10;1.10;;;;;;;1.83;100.00;99042.78;5029911;28;20112;-61
2023/12/02 04:19:12;;;;;;;1.35;1.35;;;;;;;1.86;100.00;99053.22;5014601;28;20040;-61
2023/12/02 04:21:42;;;;;;;1.20;1.20;;;;;;;1.80;100.00;99055.06;5012043;28;20022;-61
2023/12/02 04:24:09;;;;;;;1.40;1.40;;;;;;;1.73;100.00;99043.81;5013174;28;20025;-63
2023/12/02 04:26:35;;;;;;;1.40;1.40;;;;;;;1.83;100.00;99063.75;5009184;28;20046;-63
2023/12/02 04:29:01;;;;;;;1.40;1.40;;;;;;;1.81;100.00;99047.22;5012936;28;20751;-63
2023/12/02 04:31:26;;;;;;;1.35;1.35;;;;;;;1.94;100.00;99069.75;5028741;28;20040;-63
2023/12/02 04:33:52;;;;;;;1.40;1.40;;;;;;;1.95;100.00;99071.47;5028177;28;20053;-63
2023/12/02 04:36:17;;;;;;;1.30;1.30;;;;;;;1.87;100.00;99073.34;5026140;28;20037;-63
2023/12/02 04:38:43;;;;;;;1.35;1.35;;;;;;;1.86;100.00;99075.97;5028902;28;20080;-63
2023/12/02 04:41:08;;;;;;;1.20;1.20;;;;;;;1.87;100.00;99077.69;5029175;28;20444;-63
2023/12/02 04:43:34;;;;;;;1.10;1.10;;;;;;;1.85;100.00;99080.34;5028075;28;20026;-63
2023/12/02 04:45:59;;;;;;;1.40;1.40;;;;;;;1.79;100.00;99080.44;5027026;28;20025;-63
2023/12/02 04:48:24;;;;;;;1.40;1.40;;;;;;;1.81;100.00;99083.91;5029077;28;20033;-63
2023/12/02 04:50:50;;;;;;;1.30;1.30;;;;;;;1.89;100.00;99087.31;5018375;28;20037;-63
2023/12/02 04:53:16;;;;;;;1.40;1.40;;;;;;;1.85;100.00;99093.47;5009300;28;20042;-63
2023/12/02 04:55:41;;;;;;;1.30;1.30;;;;;;;1.80;100.00;99092.66;5014600;28;20121;-63
2023/12/02 04:58:07;;;;;;;1.33;1.33;;;;;;;1.79;100.00;99103.16;5008988;28;20061;-63
2023/12/02 05:00:32;;;;;;;1.40;1.40;;;;;;;1.77;100.00;99103.16;5008439;28;20040;-63
2023/12/02 05:02:57;;;;;;;1.40;1.40;;;;;;;1.76;100.00;99111.94;5020881;28;20025;-63
2023/12/02 05:05:23;;;;;;;1.50;1.50;;;;;;;1.73;100.00;99104.09;5028110;28;20031;-63
2023/12/02 05:07:48;;;;;;;1.30;1.30;;;;;;;1.73;100.00;99113.72;5024507;28;20034;-63
2023/12/02 05:10:13;;;;;;;1.30;1.30;;;;;;;1.79;100.00;99117.13;5017972;28;20022;-63
2023/12/02 05:12:39;;;;;;;1.13;1.13;;;;;;;1.78;100.00;99120.63;5032384;28;20469;-63
2023/12/02 05:15:05;;;;;;;1.42;1.42;;;;;;;1.80;100.00;99124.09;5033114;28;20079;-63
2023/12/02 05:17:30;;;;;;;1.30;1.30;;;;;;;1.81;100.00;99132.84;5025848;28;20034;-63
2023/12/02 05:19:56;;;;;;;1.20;1.20;;;;;;;1.75;100.00;99136.41;4995795;28;20054;-63
2023/12/02 05:22:22;;;;;;;1.38;1.38;;;;;;;1.76;100.00;99134.66;5012731;28;20425;-63
2023/12/02 05:24:48;;;;;;;1.30;1.30;;;;;;;1.75;100.00;99140.75;5013977;28;20033;-63
2023/12/02 05:27:13;;;;;;;1.40;1.40;;;;;;;1.74;99.79;99145.16;5029018;28;20030;-63
2023/12/02 05:29:39;;;;;;;1.42;1.42;;;;;;;1.76;100.00;99148.63;5032928;28;20881;-63
2023/12/02 05:32:05;;;;;;;1.50;1.50;;;;;;;1.82;99.77;99152.91;5026737;28;20144;-63
2023/12/02 05:34:33;;;;;;;1.30;1.30;;;;;;;1.72;97.96;99167.00;5026889;28;20746;-63
2023/12/02 05:36:58;;;;;;;1.35;1.35;;;;;;;1.67;98.34;99163.56;5032437;28;20029;-63
2023/12/02 05:39:23;;;;;;;1.35;1.35;;;;;;;1.67;98.76;99171.44;5032652;28;20057;-63
2023/12/02 05:41:49;;;;;;;1.30;1.30;;;;;;;1.71;98.21;99176.66;5022745;28;20030;-64
2023/12/02 05:44:14;;;;;;;1.20;1.20;;;;;;;1.70;97.77;99171.44;5012678;28;20084;-63
2023/12/02 05:46:39;;;;;;;1.30;1.30;;;;;;;1.67;98.06;99188.03;5027139;28;20448;-63
2023/12/02 05:49:05;;;;;;;1.40;1.40;;;;;;;1.64;98.23;99185.44;5028898;28;20084;-63
2023/12/02 05:51:30;;;;;;;1.20;1.20;;;;;;;1.62;98.43;99194.19;5030636;28;20031;-63
2023/12/02 05:53:56;;;;;;;1.25;1.25;;;;;;;1.70;98.37;99210.75;5031125;28;20368;-63
2023/12/02 05:56:21;;;;;;;1.50;1.50;;;;;;;1.72;97.56;99208.94;5022855;28;20036;-63
2023/12/02 05:58:48;;;;;;;1.20;1.20;;;;;;;1.73;97.92;99208.94;5010510;28;20160;-63
2023/12/02 06:01:22;;;;;;;1.40;1.40;;;;;;;1.72;98.02;99214.19;5018430;28;20025;-63
2023/12/02 06:03:49;;;;;;;1.30;1.30;;;;;;;1.75;98.47;99215.03;5025745;28;20705;-63
2023/12/02 06:06:14;;;;;;;1.40;1.40;;;;;;;1.66;97.48;99212.53;5030600;28;20511;-63
2023/12/02 06:08:40;;;;;;;1.40;1.40;;;;;;;1.53;97.02;99221.38;5025811;28;20119;-63
2023/12/02 06:11:06;;;;;;;1.40;1.40;;;;;;;1.47;97.78;99216.19;5017653;28;20033;-63
2023/12/02 06:13:31;;;;;;;1.50;1.50;;;;;;;1.48;98.32;99230.16;5024958;28;20038;-64
2023/12/02 06:15:56;;;;;;;1.35;1.35;;;;;;;1.52;98.13;99227.50;5017975;28;20017;-63
2023/12/02 06:18:22;;;;;;;1.40;1.40;;;;;;;1.53;98.52;99212.66;5012124;28;20029;-63
2023/12/02 06:20:47;;;;;;;1.30;1.30;;;;;;;1.57;98.39;99228.31;5011994;28;20540;-63
2023/12/02 06:23:13;;;;;;;1.48;1.48;;;;;;;1.60;98.92;99230.91;5011358;28;20125;-63
2023/12/02 06:25:38;;;;;;;1.30;1.30;;;;;;;1.61;98.61;99230.03;5016139;28;20468;-63
2023/12/02 06:28:04;;;;;;;1.30;1.30;;;;;;;1.58;99.58;99237.94;5011695;28;20076;-63
2023/12/02 06:30:31;;;;;;;1.42;1.42;;;;;;;1.51;99.08;99236.25;5016224;28;20032;-63
2023/12/02 06:32:56;;;;;;;1.30;1.30;;;;;;;1.45;98.90;99231.03;5028966;28;20029;-63
2023/12/02 06:35:22;;;;;;;1.30;1.30;;;;;;;1.45;99.52;99251.16;5029224;28;20610;-63
2023/12/02 06:37:48;;;;;;;1.40;1.40;;;;;;;1.42;98.64;99259.03;5025763;28;20048;-63
2023/12/02 06:40:13;;;;;;;1.48;1.48;;;;;;;1.29;99.89;99250.41;5031310;28;20025;-63
2023/12/02 06:42:39;;;;;;;1.40;1.40;;;;;;;1.42;99.85;99266.91;5027592;28;20113;-63
2023/12/02 06:45:05;;;;;;;1.55;1.55;;;;;;;1.43;99.91;99264.28;5030647;28;20033;-63
2023/12/02 06:47:30;;;;;;;1.30;1.30;;;;;;;1.38;99.13;99275.66;5014428;28;20083;-63
2023/12/02 06:49:55;;;;;;;1.30;1.30;;;;;;;1.44;99.24;99276.47;5029352;28;20033;-62
2023/12/02 06:52:21;;;;;;;1.40;1.40;;;;;;;1.46;99.69;99282.56;5029900;28;20461;-63
2023/12/02 06:54:47;;;;;;;1.60;1.60;;;;;;;1.42;98.98;99280.84;5030026;28;20025;-63
2023/12/02 06:57:12;;;;;;;1.50;1.50;;;;;;;1.40;98.88;99294.84;5015234;28;20482;-63
2023/12/02 06:59:37;;;;;;;1.30;1.30;;;;;;;1.42;98.57;99288.72;5009388;28;20041;-63
2023/12/02 07:02:03;;;;;;;1.45;1.45;;;;;;;1.36;98.11;99299.25;5012058;28;20032;-63
2023/12/02 07:04:28;;;;;;;1.40;1.40;;;;;;;1.34;97.99;99306.25;5027911;28;20029;-63
2023/12/02 07:06:54;;;;;;;1.40;1.40;;;;;;;1.34;96.48;99316.72;5014891;28;20026;-63
2023/12/02 07:09:19;;;;;;;1.42;1.42;;;;;;;1.38;96.37;99313.22;5030283;28;20025;-63
2023/12/02 07:11:45;;;;;;;1.40;1.40;;;;;;;1.37;96.50;99319.31;5019538;28;20136;-63
2023/12/02 07:14:10;;;;;;;1.42;1.42;;;;;;;1.33;96.22;99315.00;5010904;28;20513;-63
2023/12/02 07:16:36;;;;;;;1.48;1.48;;;;;;;1.34;96.01;99319.34;5011651;28;20025;-63
2023/12/02 07:19:02;;;;;;;1.50;1.50;;;;;;;1.34;95.36;99338.56;5030217;28;20033;-63
2023/12/02 07:21:27;;;;;;;1.50;1.50;;;;;;;1.37;95.75;99340.28;5030601;28;20578;-63
2023/12/02 07:23:53;;;;;;;1.40;1.40;;;;;;;1.36;94.74;99349.03;5030383;28;20385;-63
2023/12/02 07:26:18;;;;;;;1.45;1.45;;;;;;;1.22;94.31;99343.88;5024893;28;20021;-63
2023/12/02 07:28:44;;;;;;;1.30;1.30;;;;;;;1.35;94.63;99349.91;5010622;28;20034;-63
2023/12/02 07:31:13;;;;;;;1.40;1.40;;;;;;;1.46;94.62;99353.31;5012887;28;20073;-63
2023/12/02 07:33:39;;;;;;;1.42;1.42;;;;;;;1.52;94.52;99352.38;5026082;28;20053;-63
2023/12/02 07:36:04;;;;;;;1.30;1.30;;;;;;;1.46;94.30;99357.69;5030080;28;20734;-63
2023/12/02 07:38:30;;;;;;;1.50;1.50;;;;;;;1.42;94.06;99354.22;5021688;28;20030;-63
2023/12/02 07:40:55;;;;;;;1.48;1.48;;;;;;;1.45;93.92;99356.81;5010799;28;20018;-63
2023/12/02 07:43:21;;;;;;;1.33;1.33;;;;;;;1.42;93.49;99348.97;5013042;28;20033;-63
2023/12/02 07:45:46;;;;;;;1.40;1.40;;;;;;;1.45;93.52;99355.94;5012454;28;20080;-63
2023/12/02 07:48:12;;;;;;;1.50;1.50;;;;;;;1.45;93.88;99362.03;5020289;28;20037;-63
2023/12/02 07:50:38;;;;;;;1.50;1.50;;;;;;;1.43;94.01;99376.94;5019430;28;20091;-63
2023/12/02 07:53:03;;;;;;;1.40;1.40;;;;;;;1.40;93.92;99373.44;5009573;28;20060;-63
2023/12/02 07:55:29;;;;;;;1.50;1.50;;;;;;;1.40;93.35;99390.03;5010089;28;20061;-63
2023/12/02 07:57:54;;;;;;;1.40;1.40;;;;;;;1.44;94.43;99390.88;5011213;28;20029;-63
2023/12/02 08:00:20;;;;;;;1.50;1.50;;;;;;;1.50;93.37;99399.56;5009140;28;20317;-63
2023/12/02 08:02:45;;;;;;;1.50;1.50;;;;;;;1.50;93.93;99391.69;5018537;28;20550;-63
2023/12/02 08:05:11;;;;;;;1.50;1.50;;;;;;;1.58;93.42;99403.03;5027209;28;20515;-62
2023/12/02 08:07:36;;;;;;;1.40;1.40;;;;;;;1.57;94.03;99403.91;5029524;28;20120;-63
2023/12/02 08:10:02;;;;;;;1.40;1.40;;;;;;;1.55;93.06;99404.81;5029634;28;20063;-63
2023/12/02 08:12:27;;;;;;;1.50;1.50;;;;;;;1.58;93.51;99413.50;5029565;28;20033;-62
2023/12/02 08:14:52;;;;;;;1.40;1.40;;;;;;;1.49;92.22;99423.16;5021378;28;20041;-63
2023/12/02 08:17:18;;;;;;;1.40;1.40;;;;;;;1.47;92.37;99419.69;5026065;28;20029;-63
2023/12/02 08:19:43;;;;;;;1.35;1.35;;;;;;;1.47;91.85;99417.94;5027127;28;20076;-63
2023/12/02 08:22:09;;;;;;;1.40;1.40;;;;;;;1.46;91.52;99418.81;5009737;28;20029;-63
2023/12/02 08:24:36;;;;;;;1.50;1.50;;;;;;;1.45;91.98;99416.22;5009487;28;20482;-63
2023/12/02 08:27:01;;;;;;;1.55;1.55;;;;;;;1.46;91.55;99421.44;5021735;28;20043;-62
2023/12/02 08:29:27;;;;;;;1.30;1.30;;;;;;;1.45;91.97;99418.84;5029160;28;20670;-62
2023/12/02 08:31:52;;;;;;;1.40;1.40;;;;;;;1.44;91.63;99423.19;5028584;28;20028;-62
2023/12/02 08:34:18;;;;;;;1.40;1.40;;;;;;;1.46;91.54;99426.69;5028412;28;20060;-62
2023/12/02 08:36:43;;;;;;;1.50;1.50;;;;;;;1.49;91.85;99431.03;5011913;28;20087;-62
2023/12/02 08:39:09;;;;;;;1.30;1.30;;;;;;;1.55;92.43;99442.34;5008843;28;20755;-62
2023/12/02 08:41:36;;;;;;;1.40;1.40;;;;;;;1.55;91.71;99433.63;5011336;28;20052;-63
2023/12/02 08:44:02;;;;;;;1.30;1.30;;;;;;;1.66;91.81;99444.91;5020699;28;20517;-63
2023/12/02 08:46:27;;;;;;;1.30;1.30;;;;;;;1.69;91.72;99451.00;5031570;28;20120;-64
2023/12/02 08:48:52;;;;;;;1.42;1.42;;;;;;;1.70;92.41;99455.34;5016112;28;20025;-64
2023/12/02 08:51:18;;;;;;;1.40;1.40;;;;;;;1.70;92.63;99447.47;5015011;28;20033;-64
2023/12/02 08:53:43;;;;;;;1.30;1.30;;;;;;;1.73;91.33;99457.94;5014876;28;20025;-64
2023/12/02 08:56:09;;;;;;;1.40;1.40;;;;;;;1.79;91.72;99457.03;5019409;28;20351;-63
2023/12/02 08:58:35;;;;;;;1.38;1.38;;;;;;;1.79;91.48;99467.53;5035403;28;20025;-64
2023/12/02 09:01:00;;;;;;;1.40;1.40;;;;;;;1.66;91.34;99472.00;5031110;28;20064;-64
2023/12/02 09:03:26;;;;;;;1.40;1.40;;;;;;;1.69;91.06;99474.59;5035657;28;20033;-64
2023/12/02 09:05:57;;;;;;;1.40;1.40;;;;;;;1.68;90.81;99485.94;5035754;28;20040;-64
2023/12/02 09:08:22;;;;;;;1.50;1.50;;;;;;;1.68;91.18;99470.22;5031490;28;20527;-64
2023/12/02 09:10:48;;;;;;;1.50;1.50;;;;;;;1.80;91.64;99496.34;5035571;28;20033;-64
2023/12/02 09:13:32;;;;;;;1.40;1.40;;;;;;;1.81;91.12;99498.13;5033462;28;20021;-64
2023/12/02 09:15:58;;;;;;;1.30;1.30;;;;;;;1.75;90.77;99500.75;5015988;28;20034;-64
2023/12/02 09:18:29;;;;;;;1.40;1.40;;;;;;;1.81;90.79;99508.59;5016075;28;20030;-64
2023/12/02 09:20:55;;;;;;;1.40;1.40;;;;;;;1.97;91.16;99520.72;5016739;28;20021;-64
2023/12/02 09:23:21;;;;;;;1.30;1.30;;;;;;;2.09;92.16;99536.38;5033450;28;20033;-64
2023/12/02 09:25:48;;;;;;;1.33;1.33;;;;;;;2.13;92.19;99531.97;5024111;28;20038;-64
2023/12/02 09:28:15;;;;;;;1.30;1.30;;;;;;;1.99;90.92;99532.09;5015697;28;20022;-64
2023/12/02 09:30:58;;;;;;;1.35;1.35;;;;;;;2.02;91.02;99534.69;5000203;28;20397;-64
2023/12/02 09:33:24;;;;;;;1.40;1.40;;;;;;;2.04;90.49;99543.41;5019427;28;20053;-64
2023/12/02 09:35:54;;;;;;;1.33;1.33;;;;;;;1.99;90.36;99537.34;5034742;28;20473;-64
2023/12/02 09:38:20;;;;;;;1.33;1.33;;;;;;;1.94;90.86;99541.72;5018523;28;20033;-64
2023/12/02 09:41:18;;;;;;;1.50;1.50;;;;;;;2.07;90.87;99546.03;5026815;28;20037;-64
2023/12/02 09:44:05;;;;;;;1.30;1.30;;;;;;;2.19;90.38;99551.16;5032151;28;20708;-64
2023/12/02 09:46:47;;;;;;;1.33;1.33;;;;;;;2.26;90.54;99559.88;5034121;28;20028;-64
2023/12/02 09:49:26;;;;;;;1.35;1.35;;;;;;;2.33;89.78;99557.22;5032417;28;20088;-64
2023/12/02 09:51:54;;;;;;;1.35;1.35;;;;;;;2.48;89.74;99562.34;5032232;28;20032;-64
2023/12/02 09:54:32;;;;;;;1.42;1.42;;;;;;;2.62;90.11;99567.47;5016124;28;20141;-64
2023/12/02 09:57:11;;;;;;;1.20;1.20;;;;;;;2.63;89.28;99561.34;5020547;28;20025;-64
2023/12/02 09:59:50;;;;;;;1.42;1.42;;;;;;;2.60;88.13;99559.59;5028679;28;20111;-64
2023/12/02 10:02:42;;;;;;;1.40;1.40;;;;;;;2.72;87.81;99563.88;5031885;28;20025;-63
2023/12/02 10:05:13;;;;;;;1.20;1.20;;;;;;;2.79;86.87;99569.94;5017718;28;20040;-64
2023/12/02 10:07:59;;;;;;;1.27;1.27;;;;;;;2.68;85.50;99573.53;5012056;28;20087;-64
2023/12/02 10:10:29;;;;;;;1.20;1.20;;;;;;;2.70;87.70;99571.78;4994331;28;20029;-64
2023/12/02 10:13:14;;;;;;;1.20;1.20;;;;;;;2.78;87.08;99573.47;5014414;28;20036;-64
2023/12/02 10:15:41;;;;;;;1.30;1.30;;;;;;;2.86;86.92;99579.53;5017698;28;20038;-60
2023/12/02 10:18:12;;;;;;;1.30;1.30;;;;;;;2.86;86.26;99571.63;5019241;28;20036;-60
2023/12/02 10:20:41;;;;;;;1.20;1.20;;;;;;;2.85;85.47;99575.16;5028382;28;20044;-60
2023/12/02 10:23:21;;;;;;;1.20;1.20;;;;;;;2.97;85.77;99573.28;5036090;28;20527;-61
2023/12/02 10:25:55;;;;;;;1.30;1.30;;;;;;;3.03;85.73;99567.13;5036339;28;20029;-60
2023/12/02 10:28:44;;;;;;;1.15;1.15;;;;;;;2.89;84.23;99575.13;5035708;28;20022;-60
2023/12/02 10:31:18;;;;;;;1.20;1.20;;;;;;;2.85;83.46;99567.28;5022799;28;20397;-61
2023/12/02 10:33:56;;;;;;;1.30;1.30;;;;;;;2.89;83.51;99580.38;5033874;28;20049;-61
2023/12/02 10:36:26;;;;;;;1.30;1.30;;;;;;;2.85;83.04;99583.03;5036936;28;20045;-60
2023/12/02 10:39:10;;;;;;;1.30;1.30;;;;;;;3.10;84.71;99584.56;5019299;28;20430;-60
2023/12/02 10:41:57;;;;;;;1.33;1.33;;;;;;;3.21;84.32;99580.94;5037183;28;20494;-60
2023/12/02 10:44:24;;;;;;;1.10;1.10;;;;;;;3.28;84.63;99590.47;5033988;28;20041;-61
2023/12/02 10:46:53;;;;;;;1.17;1.17;;;;;;;3.35;83.85;99602.69;5036970;28;20022;-61
2023/12/02 10:49:19;;;;;;;1.20;1.20;;;;;;;3.36;84.23;99600.94;5034443;28;20031;-60
2023/12/02 10:51:48;;;;;;;1.20;1.20;;;;;;;3.36;84.03;99604.41;5037014;28;20025;-60
2023/12/02 10:54:17;;;;;;;1.23;1.23;;;;;;;3.22;82.15;99610.69;5029508;28;20033;-60
2023/12/02 10:56:47;;;;;;;1.10;1.10;;;;;;;3.10;83.05;99611.69;5016429;28;20076;-59
2023/12/02 10:59:13;;;;;;;1.30;1.30;;;;;;;3.08;83.27;99618.72;5015958;28;20025;-60
2023/12/02 11:01:52;;;;;;;1.20;1.20;;;;;;;3.01;83.25;99614.41;5032541;28;20029;-60
2023/12/02 11:04:28;;;;;;;1.30;1.30;;;;;;;3.04;83.95;99616.13;5028206;28;20029;-59
2023/12/02 11:07:00;;;;;;;1.30;1.30;;;;;;;2.95;84.04;99626.72;5023418;28;20113;-60
2023/12/02 11:09:53;;;;;;;1.13;1.13;;;;;;;2.85;83.11;99619.81;5034027;28;20074;-60
2023/12/02 11:12:19;;;;;;;1.10;1.10;;;;;;;2.83;83.26;99622.44;5035499;28;20068;-60
2023/12/02 11:14:49;;;;;;;1.30;1.30;;;;;;;2.88;84.46;99632.91;5032757;28;20029;-60
2023/12/02 11:17:37;;;;;;;1.30;1.30;;;;;;;2.84;83.66;99631.19;5016383;28;20050;-60
2023/12/02 11:20:14;;;;;;;1.20;1.20;;;;;;;2.86;84.75;99626.78;5014901;28;20034;-60
2023/12/02 11:23:07;;;;;;;1.20;1.20;;;;;;;2.91;85.34;99632.88;5014620;28;20089;-60
2023/12/02 11:25:53;;;;;;;1.20;1.20;;;;;;;2.88;85.40;99640.78;5013481;28;20058;-62
2023/12/02 11:29:10;;;;;;;1.10;1.10;;;;;;;2.91;85.35;99648.63;5011545;28;20026;-62
2023/12/02 11:32:07;;;;;;;1.20;1.20;;;;;;;2.91;85.78;99656.53;5029182;28;20032;-62
2023/12/02 11:34:48;;;;;;;1.20;1.20;;;;;;;2.88;85.88;99662.69;5017463;28;20052;-62
2023/12/02 11:37:38;;;;;;;1.25;1.25;;;;;;;2.93;86.01;99662.63;5009140;28;20057;-62
2023/12/02 11:40:25;;;;;;;1.20;1.20;;;;;;;2.93;85.74;99655.63;5028858;28;20029;-62
2023/12/02 11:42:57;;;;;;;1.23;1.23;;;;;;;2.97;85.80;99661.72;5026028;28;20104;-62